Time;durP1;ratioP1;P1;durP2;ratioP2;P2;SDS_P1;SDS_P2;PMS_P1;PMS_P2;Temp;Humidity;BMP_temperature;BMP_pressure;BME280_temperature;BME280_humidity;BME280_pressure;Samples;Min_cycle;Max_cycle;Signal;HPM_P1;HPM_P2
2021/05/22 00:01:08;;;;;;;13.33;6.87;;;11.20;68.10;;;;;;5012531;28;20041;-77
2021/05/22 00:03:34;;;;;;;15.77;10.00;;;11.20;67.90;;;;;;5010102;28;20046;-81
2021/05/22 00:06:00;;;;;;;9.07;4.67;;;11.20;67.80;;;;;;4995372;28;20117;-79
2021/05/22 00:08:25;;;;;;;24.03;15.10;;;11.10;67.70;;;;;;5013373;28;20167;-80
2021/05/22 00:10:51;;;;;;;19.73;12.47;;;11.10;68.30;;;;;;5014628;28;20030;-78
2021/05/22 00:13:16;;;;;;;11.20;7.10;;;11.00;68.40;;;;;;5016716;28;20117;-78
2021/05/22 00:15:43;;;;;;;20.80;12.53;;;11.00;68.30;;;;;;5019609;28;20049;-78
2021/05/22 00:18:09;;;;;;;16.47;9.83;;;11.00;68.50;;;;;;4998850;28;20034;-80
2021/05/22 00:20:35;;;;;;;22.53;14.10;;;11.00;68.40;;;;;;4994274;28;20038;-78
2021/05/22 00:23:01;;;;;;;7.47;4.83;;;11.00;68.80;;;;;;4996642;28;20030;-78
2021/05/22 00:25:26;;;;;;;12.63;5.77;;;10.90;68.50;;;;;;5021011;28;20045;-78
2021/05/22 00:27:52;;;;;;;10.67;5.57;;;10.80;68.40;;;;;;5002770;28;20030;-78
2021/05/22 00:30:18;;;;;;;13.27;8.83;;;10.80;68.30;;;;;;5019122;28;20030;-79
2021/05/22 00:32:44;;;;;;;18.70;9.93;;;10.80;68.60;;;;;;5019886;28;20064;-79
2021/05/22 00:35:10;;;;;;;9.37;5.03;;;10.80;68.60;;;;;;4987234;28;20054;-77
2021/05/22 00:37:36;;;;;;;9.50;4.43;;;10.80;68.60;;;;;;5019449;28;20030;-80
2021/05/22 00:40:04;;;;;;;13.00;7.77;;;10.80;68.70;;;;;;5017377;28;20033;-78
2021/05/22 00:42:29;;;;;;;8.83;4.17;;;10.70;68.80;;;;;;5020242;28;20064;-78
2021/05/22 00:45:08;;;;;;;5.53;3.00;;;10.70;69.00;;;;;;5004128;28;20022;-79
2021/05/22 00:47:35;;;;;;;4.37;1.33;;;10.70;69.20;;;;;;5022830;28;20065;-77
2021/05/22 00:50:01;;;;;;;7.53;3.50;;;10.60;69.00;;;;;;5022177;28;20638;-79
2021/05/22 00:52:27;;;;;;;7.60;2.73;;;10.60;69.30;;;;;;5023457;28;20030;-79
2021/05/22 00:54:53;;;;;;;12.73;6.37;;;10.60;69.40;;;;;;5023598;28;20038;-77
2021/05/22 00:57:20;;;;;;;11.97;6.30;;;10.60;69.70;;;;;;5025152;28;20034;-79
2021/05/22 00:59:46;;;;;;;9.33;5.60;;;10.70;70.30;;;;;;5007435;28;20073;-80
2021/05/22 01:02:20;;;;;;;5.07;2.40;;;10.70;70.30;;;;;;5024494;28;20029;-78
2021/05/22 01:04:45;;;;;;;7.43;2.03;;;10.60;70.00;;;;;;5022458;28;20050;-80
2021/05/22 01:07:11;;;;;;;6.43;2.87;;;10.60;70.20;;;;;;5003866;28;20030;-79
2021/05/22 01:09:39;;;;;;;3.33;1.60;;;10.60;70.40;;;;;;5021036;28;20030;-79
2021/05/22 01:12:06;;;;;;;7.67;2.70;;;10.50;70.50;;;;;;5014575;28;20117;-76
2021/05/22 01:14:47;;;;;;;8.97;3.13;;;10.50;70.80;;;;;;5011129;28;20092;-77
2021/05/22 01:17:16;;;;;;;8.13;3.63;;;10.40;70.80;;;;;;5012520;28;20029;-76
2021/05/22 01:20:00;;;;;;;7.93;4.40;;;10.40;70.80;;;;;;5011651;28;20435;-77
2021/05/22 01:22:28;;;;;;;4.77;2.70;;;10.50;71.10;;;;;;4995598;28;20038;-76
2021/05/22 01:25:29;;;;;;;6.83;2.80;;;10.50;71.00;;;;;;5008940;28;20231;-78
2021/05/22 01:27:56;;;;;;;7.13;1.80;;;10.50;71.00;;;;;;4965805;28;20033;-75
2021/05/22 01:30:22;;;;;;;11.37;5.13;;;10.50;71.00;;;;;;5006337;28;20045;-75
2021/05/22 01:32:47;;;;;;;6.87;2.50;;;10.50;71.30;;;;;;4976268;28;20034;-77
2021/05/22 01:35:14;;;;;;;5.90;1.57;;;10.50;71.40;;;;;;5008763;28;20580;-75
2021/05/22 01:37:40;;;;;;;4.50;1.87;;;10.50;71.10;;;;;;5007959;28;20088;-77
2021/05/22 01:40:07;;;;;;;3.40;1.70;;;10.50;71.20;;;;;;5006938;28;20038;-77
2021/05/22 01:42:34;;;;;;;6.80;1.60;;;10.40;71.00;;;;;;5009431;28;20032;-78
2021/05/22 01:45:04;;;;;;;5.83;1.53;;;10.40;71.00;;;;;;5009183;28;20034;-76
2021/05/22 01:47:32;;;;;;;5.40;2.77;;;10.50;71.10;;;;;;5008181;28;20030;-76
2021/05/22 01:50:01;;;;;;;5.20;1.10;;;10.60;71.00;;;;;;5008632;28;20034;-77
2021/05/22 01:52:30;;;;;;;4.77;1.27;;;10.70;70.50;;;;;;5008941;28;20133;-75
2021/05/22 01:54:56;;;;;;;5.50;1.43;;;10.80;70.10;;;;;;5008217;28;20061;-76
2021/05/22 01:57:22;;;;;;;6.57;1.27;;;10.90;69.90;;;;;;5009993;28;20026;-78
2021/05/22 01:59:48;;;;;;;4.57;1.27;;;11.00;69.70;;;;;;5007979;28;20501;-76
2021/05/22 02:02:14;;;;;;;8.13;2.27;;;11.10;69.50;;;;;;4993650;28;20033;-76
2021/05/22 02:04:44;;;;;;;10.77;2.47;;;11.10;69.50;;;;;;4993887;28;20050;-78
2021/05/22 02:07:15;;;;;;;5.23;0.80;;;11.20;69.40;;;;;;4990743;28;20035;-76
2021/05/22 02:09:42;;;;;;;5.50;2.73;;;11.20;69.10;;;;;;5003456;28;20045;-75
2021/05/22 02:12:08;;;;;;;4.80;1.40;;;11.30;69.20;;;;;;4991786;28;20437;-77
2021/05/22 02:14:37;;;;;;;6.03;1.00;;;11.30;69.00;;;;;;5010499;28;20120;-76
2021/05/22 02:17:06;;;;;;;4.33;1.50;;;11.40;68.90;;;;;;5012819;28;20060;-76
2021/05/22 02:19:32;;;;;;;4.23;1.20;;;11.40;68.70;;;;;;5013933;28;20041;-77
2021/05/22 02:22:12;;;;;;;5.50;1.53;;;11.40;68.60;;;;;;5011540;28;20483;-77
2021/05/22 02:24:38;;;;;;;3.87;0.80;;;11.50;68.70;;;;;;5011578;28;20026;-76
2021/05/22 02:27:04;;;;;;;6.80;2.10;;;11.50;68.30;;;;;;5013516;28;20041;-76
2021/05/22 02:29:35;;;;;;;6.63;1.37;;;11.50;68.50;;;;;;5012143;28;20095;-77
2021/05/22 02:32:03;;;;;;;3.93;0.60;;;11.50;68.50;;;;;;5011484;28;20030;-76
2021/05/22 02:34:35;;;;;;;6.13;1.47;;;11.60;68.30;;;;;;5014502;28;20034;-78
2021/05/22 02:37:02;;;;;;;3.97;0.90;;;11.60;68.40;;;;;;5012555;28;20030;-76
2021/05/22 02:39:29;;;;;;;3.47;0.80;;;11.60;68.20;;;;;;4996126;28;20046;-76
2021/05/22 02:41:58;;;;;;;7.00;1.20;;;11.60;68.00;;;;;;4997925;28;20030;-76
2021/05/22 02:44:25;;;;;;;3.83;0.70;;;11.60;68.20;;;;;;5004714;28;20040;-76
2021/05/22 02:46:53;;;;;;;4.67;1.50;;;11.60;68.00;;;;;;5014711;28;20026;-76
2021/05/22 02:49:27;;;;;;;6.17;0.90;;;11.60;68.30;;;;;;4995648;28;20026;-76
2021/05/22 02:51:56;;;;;;;4.73;1.30;;;11.70;68.20;;;;;;5012460;28;20071;-74
2021/05/22 02:54:24;;;;;;;5.13;1.00;;;11.60;68.10;;;;;;5012890;28;20029;-77
2021/05/22 02:56:50;;;;;;;4.10;1.03;;;11.60;68.20;;;;;;5012390;28;20037;-77
2021/05/22 02:59:18;;;;;;;7.47;0.80;;;11.60;68.30;;;;;;4991828;28;20045;-76
2021/05/22 03:01:43;;;;;;;7.90;0.70;;;11.60;68.40;;;;;;4990190;28;20038;-76
2021/05/22 03:04:10;;;;;;;5.90;0.80;;;11.50;68.40;;;;;;4993913;28;20154;-76
2021/05/22 03:06:36;;;;;;;4.80;0.70;;;11.50;68.40;;;;;;5010538;28;20506;-78
2021/05/22 03:09:02;;;;;;;5.87;0.70;;;11.60;68.50;;;;;;5012118;28;20080;-78
2021/05/22 03:11:29;;;;;;;7.87;1.10;;;11.60;68.50;;;;;;5010923;28;20026;-79
2021/05/22 03:13:54;;;;;;;5.63;0.77;;;11.60;68.60;;;;;;5010843;28;20036;-76
2021/05/22 03:16:20;;;;;;;4.00;1.13;;;11.60;68.30;;;;;;5011306;28;20478;-75
2021/05/22 03:18:46;;;;;;;4.97;0.97;;;11.70;68.70;;;;;;5010825;28;20030;-75
2021/05/22 03:21:11;;;;;;;6.50;0.70;;;11.80;68.90;;;;;;5011091;28;20041;-73
2021/05/22 03:23:38;;;;;;;4.07;0.80;;;11.80;68.70;;;;;;5011590;28;20037;-75
2021/05/22 03:26:05;;;;;;;5.03;0.60;;;11.70;68.90;;;;;;5006945;28;20122;-78
2021/05/22 03:28:30;;;;;;;6.57;1.00;;;11.70;69.50;;;;;;5009144;28;20036;-74
2021/05/22 03:30:56;;;;;;;4.23;0.70;;;11.70;69.80;;;;;;4991204;28;20121;-74
2021/05/22 03:33:22;;;;;;;5.20;0.60;;;11.70;69.80;;;;;;4996301;28;20022;-75
2021/05/22 03:35:47;;;;;;;5.63;0.60;;;11.70;69.90;;;;;;4977056;28;20057;-74
2021/05/22 03:38:13;;;;;;;4.93;0.70;;;11.80;69.60;;;;;;5011444;28;20137;-74
2021/05/22 03:40:39;;;;;;;4.33;0.70;;;11.80;69.60;;;;;;4994921;28;20050;-77
2021/05/22 03:43:04;;;;;;;6.13;0.70;;;11.80;69.70;;;;;;4994919;28;20474;-75
2021/05/22 03:45:30;;;;;;;6.53;0.80;;;11.80;69.60;;;;;;4994818;28;20113;-75
2021/05/22 03:47:56;;;;;;;6.33;1.27;;;11.80;69.30;;;;;;5010623;28;20164;-75
2021/05/22 03:50:22;;;;;;;4.00;0.63;;;11.90;69.50;;;;;;5010314;28;20042;-75
2021/05/22 03:52:47;;;;;;;5.53;0.60;;;11.90;69.30;;;;;;5010652;28;20413;-75
2021/05/22 03:55:13;;;;;;;4.33;0.60;;;11.90;69.10;;;;;;5010215;28;20025;-76
2021/05/22 03:57:39;;;;;;;5.07;0.60;;;11.80;69.20;;;;;;5010493;28;20037;-74
2021/05/22 04:00:08;;;;;;;4.20;0.80;;;11.90;69.40;;;;;;4990391;28;20482;-76
2021/05/22 04:02:33;;;;;;;3.83;0.70;;;11.80;69.20;;;;;;4992613;28;20033;-74
2021/05/22 04:04:59;;;;;;;6.53;0.63;;;11.80;69.40;;;;;;5009379;28;20045;-74
2021/05/22 04:07:25;;;;;;;4.40;0.50;;;11.80;69.40;;;;;;5011564;28;20030;-75
2021/05/22 04:09:51;;;;;;;4.87;0.70;;;11.80;69.40;;;;;;5010074;28;20030;-76
2021/05/22 04:12:16;;;;;;;6.43;0.63;;;11.80;69.50;;;;;;4994809;28;20022;-75
2021/05/22 04:14:42;;;;;;;4.90;0.60;;;11.90;69.50;;;;;;4994307;28;20034;-75
2021/05/22 04:17:07;;;;;;;7.87;0.80;;;11.80;69.60;;;;;;5010975;28;20022;-74
2021/05/22 04:19:33;;;;;;;5.93;0.70;;;11.80;69.60;;;;;;5008392;28;20041;-77
2021/05/22 04:21:59;;;;;;;6.37;0.40;;;11.80;69.50;;;;;;5010600;28;20037;-76
2021/05/22 04:24:24;;;;;;;7.73;1.00;;;11.80;69.30;;;;;;5006236;28;20026;-75
2021/05/22 04:26:50;;;;;;;4.93;0.60;;;11.80;69.60;;;;;;5010914;28;20030;-76
2021/05/22 04:29:16;;;;;;;5.53;0.63;;;11.90;69.80;;;;;;5009155;28;20077;-78
2021/05/22 04:31:41;;;;;;;9.47;0.70;;;11.90;69.60;;;;;;5009229;28;20026;-76
2021/05/22 04:34:07;;;;;;;8.07;0.63;;;11.90;69.60;;;;;;5006585;28;20034;-75
2021/05/22 04:36:33;;;;;;;7.23;0.93;;;11.90;69.50;;;;;;4973937;28;20031;-75
2021/05/22 04:38:58;;;;;;;7.00;0.80;;;11.90;69.40;;;;;;4999362;28;20159;-77
2021/05/22 04:41:24;;;;;;;4.07;0.60;;;11.90;69.50;;;;;;4991375;28;20430;-76
2021/05/22 04:43:50;;;;;;;4.80;0.60;;;12.00;69.60;;;;;;5010382;28;20033;-75
2021/05/22 04:46:15;;;;;;;4.33;0.60;;;12.00;69.50;;;;;;4990088;28;20364;-79
2021/05/22 04:48:41;;;;;;;5.90;0.50;;;12.10;69.30;;;;;;4988511;28;20038;-76
2021/05/22 04:51:09;;;;;;;6.33;0.57;;;12.00;69.30;;;;;;5010484;28;20068;-76
2021/05/22 04:53:35;;;;;;;5.53;0.70;;;12.10;69.30;;;;;;5007243;28;20484;-76
2021/05/22 04:56:00;;;;;;;4.57;0.50;;;12.00;69.00;;;;;;5009893;28;20026;-76
2021/05/22 04:58:26;;;;;;;6.80;0.60;;;12.00;69.30;;;;;;5009847;28;20363;-76
2021/05/22 05:00:52;;;;;;;5.53;0.70;;;12.00;69.20;;;;;;5009632;28;20410;-75
2021/05/22 05:03:18;;;;;;;6.57;0.57;;;12.10;69.20;;;;;;4992697;28;20115;-82
2021/05/22 05:05:45;;;;;;;6.90;0.50;;;12.10;69.10;;;;;;5008523;28;20049;-76
2021/05/22 05:08:14;;;;;;;8.73;0.70;;;12.10;68.90;;;;;;5008562;28;20025;-76
2021/05/22 05:10:40;;;;;;;7.33;0.90;;;12.00;68.90;;;;;;5008680;28;20069;-77
2021/05/22 05:13:05;;;;;;;9.03;0.60;;;12.10;69.00;;;;;;5009257;28;20065;-76
2021/05/22 05:15:31;;;;;;;7.60;0.80;;;12.10;69.10;;;;;;5008269;28;20029;-76
2021/05/22 05:17:57;;;;;;;11.53;0.67;;;12.10;69.30;;;;;;5009004;28;20025;-76
2021/05/22 05:20:22;;;;;;;6.43;0.77;;;12.00;69.80;;;;;;5008491;28;20037;-79
2021/05/22 05:22:51;;;;;;;4.90;0.70;;;12.00;70.10;;;;;;4992438;28;20458;-76
2021/05/22 05:25:16;;;;;;;4.63;0.70;;;12.00;70.40;;;;;;5009273;28;20040;-76
2021/05/22 05:27:42;;;;;;;7.67;0.83;;;12.00;70.70;;;;;;5007140;28;20669;-76
2021/05/22 05:30:08;;;;;;;6.50;0.60;;;12.00;70.90;;;;;;4992891;28;20140;-75
2021/05/22 05:32:33;;;;;;;6.77;0.70;;;12.00;71.10;;;;;;5007334;28;20166;-76
2021/05/22 05:34:59;;;;;;;4.13;0.60;;;12.00;71.40;;;;;;5009952;28;20037;-76
2021/05/22 05:37:25;;;;;;;7.73;0.60;;;11.90;71.70;;;;;;4990304;28;20022;-81
2021/05/22 05:39:50;;;;;;;7.90;0.70;;;11.90;72.00;;;;;;5007372;28;20560;-75
2021/05/22 05:42:16;;;;;;;8.43;0.60;;;11.80;72.00;;;;;;4992623;28;20118;-76
2021/05/22 05:44:42;;;;;;;5.17;0.60;;;11.80;71.90;;;;;;5009305;28;20109;-76
2021/05/22 05:47:07;;;;;;;5.03;0.60;;;11.80;72.40;;;;;;4992168;28;20493;-77
2021/05/22 05:49:33;;;;;;;5.97;0.70;;;11.80;72.20;;;;;;4991088;28;20045;-77
2021/05/22 05:51:59;;;;;;;4.47;0.67;;;11.80;72.10;;;;;;5009182;28;20025;-77
2021/05/22 05:54:25;;;;;;;6.33;0.90;;;11.80;72.50;;;;;;5007455;28;20045;-77
2021/05/22 05:56:51;;;;;;;8.27;0.67;;;11.90;72.50;;;;;;5008669;28;20056;-76
2021/05/22 05:59:17;;;;;;;9.73;0.87;;;11.90;72.50;;;;;;4990596;28;20390;-76
2021/05/22 06:01:43;;;;;;;4.67;0.63;;;11.90;72.30;;;;;;5008405;28;20026;-75
2021/05/22 06:04:09;;;;;;;6.53;0.90;;;11.80;72.40;;;;;;5007859;28;20042;-75
2021/05/22 06:06:36;;;;;;;6.07;0.80;;;11.90;72.60;;;;;;4989777;28;20034;-76
2021/05/22 06:09:02;;;;;;;7.10;0.73;;;11.90;72.40;;;;;;5007964;28;20087;-76
2021/05/22 06:11:30;;;;;;;6.43;0.90;;;11.90;72.00;;;;;;5008398;28;20501;-78
2021/05/22 06:13:57;;;;;;;4.70;0.43;;;12.00;72.20;;;;;;4985598;28;20034;-76
2021/05/22 06:16:28;;;;;;;7.40;0.60;;;12.00;71.80;;;;;;5008131;28;20182;-75
2021/05/22 06:18:54;;;;;;;3.97;0.60;;;12.00;71.70;;;;;;4992152;28;20034;-76
2021/05/22 06:21:21;;;;;;;6.33;0.60;;;12.00;71.70;;;;;;5009252;28;20475;-76
2021/05/22 06:23:48;;;;;;;6.30;0.67;;;12.10;71.90;;;;;;5006103;28;20034;-76
2021/05/22 06:26:14;;;;;;;5.57;0.60;;;12.10;71.90;;;;;;4990068;28;20026;-76
2021/05/22 06:28:39;;;;;;;4.83;0.90;;;12.10;71.80;;;;;;5007761;28;20034;-77
2021/05/22 06:31:05;;;;;;;6.03;0.60;;;12.20;71.80;;;;;;4991348;28;20116;-78
2021/05/22 06:33:31;;;;;;;6.67;0.70;;;12.20;72.10;;;;;;5009074;28;20471;-79
2021/05/22 06:35:57;;;;;;;7.50;0.60;;;12.20;71.90;;;;;;4992280;28;20045;-74
2021/05/22 06:38:23;;;;;;;5.80;0.70;;;12.20;72.00;;;;;;5000530;28;20116;-81
2021/05/22 06:40:49;;;;;;;5.53;0.60;;;12.20;72.30;;;;;;4997627;28;20119;-77
2021/05/22 06:43:15;;;;;;;5.37;0.50;;;12.30;72.80;;;;;;4997571;28;20052;-79
2021/05/22 06:45:45;;;;;;;6.60;0.60;;;12.20;72.70;;;;;;4996043;28;20042;-75
2021/05/22 06:48:12;;;;;;;7.33;0.70;;;12.20;73.40;;;;;;5003700;28;20413;-76
2021/05/22 06:50:39;;;;;;;7.27;0.90;;;12.10;73.40;;;;;;5004644;28;20035;-78
2021/05/22 06:53:05;;;;;;;5.90;0.80;;;12.10;73.50;;;;;;4999967;28;20121;-78
2021/05/22 06:55:31;;;;;;;9.33;1.13;;;12.10;73.70;;;;;;4998014;28;20034;-76
2021/05/22 06:57:57;;;;;;;8.33;1.20;;;12.20;73.90;;;;;;4996941;28;20552;-74
2021/05/22 07:00:23;;;;;;;8.87;1.10;;;12.20;73.80;;;;;;4980375;28;20042;-76
2021/05/22 07:02:49;;;;;;;6.83;1.20;;;12.20;73.60;;;;;;5001064;28;20037;-76
2021/05/22 07:05:15;;;;;;;4.93;1.03;;;12.30;73.70;;;;;;4998482;28;20054;-75
2021/05/22 07:07:42;;;;;;;5.93;1.10;;;12.30;73.80;;;;;;4999226;28;20371;-77
2021/05/22 07:10:11;;;;;;;9.63;1.33;;;12.40;73.70;;;;;;4999318;28;20137;-76
2021/05/22 07:12:37;;;;;;;6.40;1.53;;;12.40;74.20;;;;;;5002709;28;20022;-80
2021/05/22 07:15:05;;;;;;;5.43;0.80;;;12.50;74.20;;;;;;5005178;28;20091;-78
2021/05/22 07:17:31;;;;;;;5.70;1.20;;;12.40;74.20;;;;;;5008902;28;20038;-76
2021/05/22 07:19:56;;;;;;;9.70;1.63;;;12.50;74.20;;;;;;5000680;28;20042;-77
2021/05/22 07:22:22;;;;;;;6.47;1.00;;;12.60;74.30;;;;;;4996656;28;20084;-77
2021/05/22 07:24:48;;;;;;;3.83;0.67;;;12.60;74.40;;;;;;4998083;28;20111;-78
2021/05/22 07:27:15;;;;;;;5.23;0.90;;;12.60;74.40;;;;;;4999174;28;20052;-77
2021/05/22 07:29:41;;;;;;;5.27;1.20;;;12.60;74.90;;;;;;4985636;28;20048;-83
2021/05/22 07:32:07;;;;;;;6.60;1.17;;;12.60;74.90;;;;;;5002961;28;20108;-78
2021/05/22 07:34:33;;;;;;;6.13;1.70;;;12.60;75.00;;;;;;4985458;28;20501;-77
2021/05/22 07:36:59;;;;;;;5.67;1.23;;;12.80;75.00;;;;;;4984180;28;20116;-77
2021/05/22 07:39:25;;;;;;;5.40;1.60;;;12.80;74.90;;;;;;5005910;28;20500;-77
2021/05/22 07:41:50;;;;;;;10.27;2.70;;;12.80;74.80;;;;;;5005201;28;20064;-76
2021/05/22 07:44:16;;;;;;;10.67;1.40;;;12.70;75.00;;;;;;4994514;28;20034;-77
2021/05/22 07:46:42;;;;;;;8.63;1.93;;;12.80;75.20;;;;;;4995112;28;20034;-77
2021/05/22 07:49:08;;;;;;;14.87;4.50;;;12.90;75.40;;;;;;4993368;28;20028;-79
2021/05/22 07:51:34;;;;;;;7.10;1.37;;;13.10;75.40;;;;;;4994978;28;20037;-76
2021/05/22 07:54:00;;;;;;;5.53;0.70;;;13.30;75.20;;;;;;5007481;28;20165;-78
2021/05/22 07:56:26;;;;;;;6.50;1.10;;;13.40;74.10;;;;;;5011586;28;20041;-79
2021/05/22 07:58:52;;;;;;;6.83;0.90;;;13.30;74.50;;;;;;5009407;28;20049;-78
2021/05/22 08:01:18;;;;;;;7.27;1.23;;;13.30;75.30;;;;;;5010860;28;20390;-79
2021/05/22 08:03:43;;;;;;;6.70;1.70;;;13.30;74.60;;;;;;5005031;28;20050;-78
2021/05/22 08:06:09;;;;;;;8.60;1.90;;;13.40;74.40;;;;;;4988728;28;20030;-78
2021/05/22 08:08:35;;;;;;;6.70;1.50;;;13.50;74.20;;;;;;4996797;28;20113;-77
2021/05/22 08:11:01;;;;;;;8.37;2.33;;;13.60;74.00;;;;;;5002922;28;20129;-77
2021/05/22 08:13:31;;;;;;;8.77;2.60;;;13.60;73.50;;;;;;5011021;28;20030;-76
2021/05/22 08:15:58;;;;;;;6.70;1.40;;;13.60;73.30;;;;;;4995654;28;20499;-76
2021/05/22 08:18:24;;;;;;;7.63;2.47;;;13.70;73.00;;;;;;4995571;28;20144;-76
2021/05/22 08:20:50;;;;;;;6.30;2.50;;;13.80;73.00;;;;;;5010221;28;20080;-78
2021/05/22 08:23:16;;;;;;;7.67;2.30;;;13.80;72.80;;;;;;5009737;28;20541;-76
2021/05/22 08:25:42;;;;;;;7.40;2.77;;;13.90;72.10;;;;;;4993524;28;20125;-76
2021/05/22 08:28:08;;;;;;;6.87;1.93;;;13.90;72.10;;;;;;5009267;28;20060;-78
2021/05/22 08:30:35;;;;;;;7.80;1.00;;;13.80;72.20;;;;;;4993713;28;20041;-76
2021/05/22 08:33:02;;;;;;;6.70;1.55;;;13.70;72.10;;;;;;5009034;28;21414;-75
2021/05/22 08:35:29;;;;;;;10.57;2.63;;;13.80;72.60;;;;;;5009564;28;20454;-76
2021/05/22 08:37:55;;;;;;;10.73;2.60;;;13.60;72.30;;;;;;4993950;28;20445;-76
2021/05/22 08:40:25;;;;;;;6.47;1.20;;;13.70;72.30;;;;;;4994876;28;20042;-75
2021/05/22 08:42:51;;;;;;;8.63;1.25;;;13.80;72.00;;;;;;5009719;28;20034;-78
2021/05/22 08:45:20;;;;;;;7.10;1.95;;;13.90;71.60;;;;;;5010004;28;20421;-75
2021/05/22 08:47:47;;;;;;;8.77;2.13;;;14.00;71.40;;;;;;5009795;28;20058;-76
2021/05/22 08:50:13;;;;;;;7.17;1.23;;;14.00;71.30;;;;;;4993297;28;20132;-76
2021/05/22 08:52:39;;;;;;;8.43;1.00;;;14.00;71.70;;;;;;5010339;28;20479;-75
2021/05/22 08:55:07;;;;;;;6.57;1.40;;;13.80;71.20;;;;;;4989380;28;20470;-75
2021/05/22 08:57:33;;;;;;;6.60;2.33;;;13.70;71.40;;;;;;4990709;28;20378;-76
2021/05/22 08:59:59;;;;;;;7.20;2.40;;;13.70;71.90;;;;;;5006223;28;20038;-76
2021/05/22 09:02:25;;;;;;;7.27;2.30;;;13.70;72.10;;;;;;5010071;28;20034;-76
2021/05/22 09:05:10;;;;;;;7.15;1.92;;;13.90;72.00;;;;;;5008244;28;20133;-75
2021/05/22 09:07:39;;;;;;;4.93;0.73;;;14.00;71.70;;;;;;5009055;28;20597;-76
2021/05/22 09:10:12;;;;;;;6.15;0.93;;;14.10;71.20;;;;;;5010345;28;20046;-76
2021/05/22 09:12:40;;;;;;;6.88;1.48;;;14.10;71.20;;;;;;5011820;28;20520;-76
2021/05/22 09:15:14;;;;;;;6.13;1.00;;;14.10;71.60;;;;;;5014199;28;20062;-76
2021/05/22 09:17:52;;;;;;;6.35;1.58;;;14.30;71.30;;;;;;5016311;28;20482;-77
2021/05/22 09:20:34;;;;;;;6.38;1.08;;;14.30;71.10;;;;;;5012216;28;20355;-77
2021/05/22 09:23:07;;;;;;;5.35;1.58;;;14.20;71.50;;;;;;5011248;28;20053;-79
2021/05/22 09:25:41;;;;;;;7.65;2.53;;;14.10;71.60;;;;;;5007218;28;20034;-76
2021/05/22 09:28:08;;;;;;;7.57;2.03;;;14.10;71.70;;;;;;4998006;28;20033;-76
2021/05/22 09:30:37;;;;;;;7.40;2.33;;;14.10;71.20;;;;;;5000386;28;20078;-77
2021/05/22 09:33:09;;;;;;;6.05;1.45;;;14.00;71.90;;;;;;5009266;28;20359;-77
2021/05/22 09:35:35;;;;;;;7.35;2.75;;;14.00;71.70;;;;;;4995149;28;20586;-76
2021/05/22 09:38:01;;;;;;;8.13;3.63;;;14.00;72.20;;;;;;5007278;28;20117;-78
2021/05/22 09:40:29;;;;;;;5.05;1.60;;;14.00;72.10;;;;;;5003787;28;20478;-77
2021/05/22 09:42:56;;;;;;;6.57;2.65;;;14.00;71.90;;;;;;4992539;28;20023;-77
2021/05/22 09:45:32;;;;;;;7.88;2.75;;;14.20;71.90;;;;;;4979548;28;20501;-74
2021/05/22 09:48:12;;;;;;;11.40;6.65;;;14.20;72.00;;;;;;4994680;28;20041;-77
2021/05/22 09:50:39;;;;;;;11.55;5.25;;;14.10;72.10;;;;;;5011933;28;20104;-75
2021/05/22 09:53:23;;;;;;;7.95;3.60;;;14.10;72.00;;;;;;5007730;28;20050;-79
2021/05/22 09:56:12;;;;;;;6.88;2.95;;;14.10;72.40;;;;;;5004132;28;20062;-75
2021/05/22 09:58:40;;;;;;;7.75;2.55;;;14.10;72.70;;;;;;4996970;28;20658;-75
2021/05/22 10:01:06;;;;;;;7.25;3.13;;;14.10;72.40;;;;;;5011066;28;20038;-78
2021/05/22 10:03:32;;;;;;;7.90;3.15;;;14.10;72.20;;;;;;5001175;28;20057;-76
2021/05/22 10:05:57;;;;;;;9.55;3.30;;;14.10;72.10;;;;;;5010564;28;20513;-76
2021/05/22 10:08:23;;;;;;;9.70;4.60;;;14.00;72.40;;;;;;5007866;28;20822;-75
2021/05/22 10:10:51;;;;;;;11.15;4.07;;;14.00;72.80;;;;;;5009298;28;20084;-75
2021/05/22 10:13:19;;;;;;;11.70;4.70;;;13.90;73.10;;;;;;5009266;28;20022;-74
2021/05/22 10:15:47;;;;;;;10.70;4.05;;;13.90;73.30;;;;;;5010652;28;20520;-75
2021/05/22 10:18:14;;;;;;;8.30;3.13;;;13.90;73.40;;;;;;5007769;28;20091;-75
2021/05/22 10:20:40;;;;;;;9.93;4.70;;;14.00;73.70;;;;;;5010290;28;20037;-76
2021/05/22 10:23:06;;;;;;;7.60;3.80;;;14.00;73.80;;;;;;5006856;28;20033;-73
2021/05/22 10:25:32;;;;;;;6.53;3.33;;;13.90;73.80;;;;;;5006383;28;20076;-77
2021/05/22 10:27:58;;;;;;;8.55;3.45;;;14.00;74.00;;;;;;5005255;28;20081;-77
2021/05/22 10:30:24;;;;;;;8.52;2.80;;;14.00;73.90;;;;;;4996074;28;20061;-75
2021/05/22 10:33:01;;;;;;;4.63;2.20;;;13.90;74.30;;;;;;4990445;28;20074;-76
2021/05/22 10:35:28;;;;;;;5.57;2.15;;;13.90;74.40;;;;;;5009261;28;20355;-76
2021/05/22 10:37:54;;;;;;;7.22;2.70;;;13.70;74.90;;;;;;4993864;28;20030;-75
2021/05/22 10:40:42;;;;;;;5.75;1.63;;;13.70;75.20;;;;;;5011258;28;20621;-74
2021/05/22 10:43:08;;;;;;;8.82;2.53;;;13.60;75.20;;;;;;5008888;28;20053;-76
2021/05/22 10:45:39;;;;;;;4.50;1.60;;;13.40;75.80;;;;;;5004343;28;20034;-77
2021/05/22 10:48:25;;;;;;;5.27;1.47;;;13.40;76.00;;;;;;5012928;28;20068;-76
2021/05/22 10:50:52;;;;;;;5.03;1.40;;;13.30;76.30;;;;;;5012230;28;20088;-76
2021/05/22 10:53:35;;;;;;;6.73;1.87;;;13.20;76.80;;;;;;5010194;28;20062;-77
2021/05/22 10:56:15;;;;;;;5.80;2.60;;;13.10;76.80;;;;;;5011850;28;20054;-76
2021/05/22 10:59:16;;;;;;;7.57;1.83;;;13.10;76.70;;;;;;5013671;28;20029;-76
2021/05/22 11:01:44;;;;;;;9.23;3.30;;;13.00;76.80;;;;;;4991870;28;20582;-80
2021/05/22 11:04:12;;;;;;;7.77;2.60;;;13.10;77.20;;;;;;5005156;28;20046;-78
2021/05/22 11:06:38;;;;;;;6.10;1.90;;;13.10;77.10;;;;;;5008783;28;20040;-82
2021/05/22 11:09:27;;;;;;;7.17;2.57;;;13.20;76.90;;;;;;5008653;28;20046;-79
2021/05/22 11:11:54;;;;;;;4.87;1.57;;;13.40;76.90;;;;;;5012906;28;20088;-79
2021/05/22 11:14:46;;;;;;;8.33;3.73;;;13.50;76.50;;;;;;4982825;28;20042;-82
2021/05/22 11:17:26;;;;;;;8.80;3.33;;;13.60;76.20;;;;;;5009439;28;20026;-79
2021/05/22 11:19:58;;;;;;;9.67;3.30;;;13.70;76.00;;;;;;5010033;28;20120;-76
2021/05/22 11:22:27;;;;;;;8.17;1.63;;;13.80;75.80;;;;;;5010419;28;20068;-81
2021/05/22 11:25:00;;;;;;;7.93;2.45;;;13.80;75.20;;;;;;5006563;28;20033;-78
2021/05/22 11:30:37;;;;;;;7.57;2.47;;;14.00;75.30;;;;;;5013073;28;20141;-80
2021/05/22 11:33:09;;;;;;;7.70;3.30;;;14.00;75.20;;;;;;5012899;28;20033;-80
2021/05/22 11:35:40;;;;;;;8.18;2.80;;;14.10;75.30;;;;;;5010699;28;20030;-79
2021/05/22 11:38:14;;;;;;;7.53;2.15;;;14.20;75.50;;;;;;5010971;28;20026;-78
2021/05/22 11:40:40;;;;;;;7.80;2.63;;;14.10;75.60;;;;;;5003265;28;20567;-79
2021/05/22 11:43:15;;;;;;;6.43;2.22;;;14.00;76.20;;;;;;5003435;28;20095;-76
2021/05/22 11:45:47;;;;;;;8.23;2.08;;;13.90;76.60;;;;;;5004074;28;20026;-78
2021/05/22 11:48:41;;;;;;;5.90;2.58;;;13.80;76.90;;;;;;5004077;28;20042;-78
2021/05/22 11:51:06;;;;;;;;;;;13.70;77.20;;;;;;5002423;28;20122;-78
2021/05/22 11:53:32;;;;;;;5.43;1.90;;;13.70;77.40;;;;;;5002240;28;19996;-78
2021/05/22 11:56:13;;;;;;;9.07;2.30;;;13.70;77.90;;;;;;5002208;28;20061;-79
2021/05/22 11:58:40;;;;;;;11.47;3.93;;;13.60;78.00;;;;;;5003142;28;20030;-77
2021/05/22 12:01:17;;;;;;;7.10;2.40;;;13.70;77.90;;;;;;5002113;28;20039;-77
2021/05/22 12:03:45;;;;;;;6.88;3.33;;;13.70;77.70;;;;;;5003457;28;20105;-80
2021/05/22 12:06:29;;;;;;;7.57;2.47;;;13.70;77.90;;;;;;5005231;28;20044;-77
2021/05/22 12:09:10;;;;;;;10.30;3.30;;;13.70;78.10;;;;;;5003619;28;20371;-77
2021/05/22 12:11:42;;;;;;;7.75;2.47;;;13.50;78.20;;;;;;5009024;28;20394;-79
2021/05/22 12:14:08;;;;;;;8.65;2.35;;;13.40;78.40;;;;;;5011446;28;20447;-80
2021/05/22 12:16:36;;;;;;;7.77;3.00;;;13.40;78.80;;;;;;5000922;28;20030;-81
2021/05/22 12:19:14;;;;;;;8.97;4.13;;;13.30;78.90;;;;;;4983195;28;20046;-79
2021/05/22 12:21:40;;;;;;;8.63;2.83;;;13.30;79.10;;;;;;5002018;28;20033;-81
2021/05/22 12:24:11;;;;;;;6.80;2.20;;;13.30;79.20;;;;;;5007892;28;20022;-85
2021/05/22 12:26:39;;;;;;;9.83;4.37;;;13.30;79.30;;;;;;4999309;28;20022;-82
2021/05/22 12:29:08;;;;;;;7.33;3.67;;;13.20;79.60;;;;;;5004586;28;20397;-83
2021/05/22 12:31:35;;;;;;;14.50;3.50;;;13.20;79.70;;;;;;5001366;28;20053;-83
2021/05/22 12:34:04;;;;;;;6.73;2.33;;;13.10;79.90;;;;;;4999195;28;20109;-81
2021/05/22 12:36:30;;;;;;;7.97;3.23;;;13.10;80.10;;;;;;4996694;28;20041;-82
2021/05/22 12:38:56;;;;;;;11.40;3.57;;;13.00;80.20;;;;;;5005964;28;20126;-84
2021/05/22 12:41:34;;;;;;;6.63;3.70;;;13.00;80.50;;;;;;4999481;28;20114;-82
2021/05/22 12:44:00;;;;;;;9.83;2.67;;;13.00;80.50;;;;;;5002650;28;20036;-83
2021/05/22 12:46:33;;;;;;;13.27;2.70;;;13.00;80.60;;;;;;5011145;28;20037;-84
2021/05/22 12:49:15;;;;;;;16.85;5.43;;;13.00;80.70;;;;;;5010064;28;20034;-85
2021/05/22 12:51:43;;;;;;;10.40;4.80;;;13.00;81.00;;;;;;5011947;28;20022;-85
2021/05/22 12:54:28;;;;;;;15.07;6.27;;;13.20;81.00;;;;;;5010357;28;20038;-84